KRFD/RFD METAR and TAF weather

Enter ICAO airport designator
Station Type Date Time Source
KRFD METAR 2019/11/22 00:54 UTC NOAA

KRFD 220054Z 30013KT 10SM BKN018 OVC027 06/02 A2997 RMK AO2 SLP153 T00560017


Station Type Date Time Source
KRFD Decoded METAR 2019/11/22 00:54 UTC NOAA

GREATER ROCKFORD AIRPORT, IL, United States (KRFD) 42-12N 89-06W 221M
Nov 21, 2019 - 07:54 PM EST / 2019.11.22 0054 UTC
Wind: from the WNW (300 degrees) at 15 MPH (13 KT):0
Visibility: 10 mile(s):0
Sky conditions: overcast
Temperature: 42.1 F (5.6 C)
Dew Point: 35.1 F (1.7 C)
Relative Humidity: 75%
Pressure (altimeter): 29.97 in. Hg (1014 hPa)
ob: KRFD 220054Z 30013KT 10SM BKN018 OVC027 06/02 A2997 RMK AO2 SLP153 T00560017
cycle: 1

Station Type Date Time Source
KRFD TAF 2019/11/21 21:12 UTC NOAA

TAF KRFD 212108Z 2121/2218 27016G26KT P6SM OVC015
FM212300 30014G22KT P6SM OVC020
FM220600 33012G18KT P6SM BKN025
FM220800 32010KT P6SM SCT020 SCT250

Example: see airport list